createdAt,value
2023-04-24T00:04:42.138Z,1.58
2023-04-24T00:09:44.992Z,1.50
2023-04-24T00:14:47.484Z,1.80
2023-04-24T00:19:52.182Z,2.15
2023-04-24T00:24:54.602Z,2.08
2023-04-24T00:29:56.623Z,1.90
2023-04-24T00:34:58.775Z,1.40
2023-04-24T00:40:01.313Z,1.50
2023-04-24T00:45:04.316Z,1.80
2023-04-24T00:50:07.500Z,1.52
2023-04-24T00:55:10.541Z,1.85
2023-04-24T01:00:13.479Z,1.42
2023-04-24T01:05:18.284Z,1.80
2023-04-24T01:10:21.451Z,1.80
2023-04-24T01:15:23.675Z,1.67
2023-04-24T01:20:27.229Z,1.80
2023-04-24T01:25:29.799Z,2.15
2023-04-24T01:30:33.377Z,2.00
2023-04-24T01:35:37.197Z,1.83
2023-04-24T01:40:39.711Z,2.10
2023-04-24T01:45:41.857Z,2.28
2023-04-24T01:50:44.083Z,2.40
2023-04-24T01:55:47.937Z,2.00
2023-04-24T02:00:50.093Z,2.70
2023-04-24T02:05:52.205Z,2.15
2023-04-24T02:10:54.231Z,2.47
2023-04-24T02:15:56.361Z,2.42
2023-04-24T02:20:59.403Z,2.50
2023-04-24T02:26:01.490Z,2.22
2023-04-24T02:31:03.629Z,2.13
2023-04-24T02:36:05.918Z,2.25
2023-04-24T02:41:07.977Z,1.85
2023-04-24T02:46:10.220Z,2.30
2023-04-24T02:51:12.397Z,2.20
2023-04-24T02:56:14.520Z,2.40
2023-04-24T03:01:16.680Z,2.42
2023-04-24T03:06:18.805Z,2.35
2023-04-24T03:11:21.161Z,2.33
2023-04-24T03:16:23.389Z,2.30
2023-04-24T03:21:25.633Z,1.77
2023-04-24T03:26:27.963Z,2.20
2023-04-24T03:31:42.831Z,2.13
2023-04-24T03:36:45.128Z,2.08
2023-04-24T03:41:47.777Z,2.33
2023-04-24T03:46:54.349Z,2.25
2023-04-24T03:51:58.691Z,2.00
2023-04-24T03:57:03.117Z,2.20
2023-04-24T04:02:08.312Z,2.53
2023-04-24T04:07:10.931Z,2.30
2023-04-24T04:12:13.865Z,2.25
2023-04-24T04:17:16.233Z,2.25
2023-04-24T04:22:18.869Z,2.30
2023-04-24T04:32:36.003Z,2.65
2023-04-24T04:37:41.088Z,2.42
2023-04-24T04:43:06.778Z,2.67
2023-04-24T04:48:18.578Z,2.60
2023-04-24T04:53:21.073Z,2.75
2023-04-24T04:58:23.592Z,2.50
2023-04-24T05:03:30.639Z,2.70
2023-04-24T05:08:42.636Z,3.10
2023-04-24T05:13:51.043Z,3.20
2023-04-24T05:18:58.742Z,2.72
2023-04-24T05:24:06.557Z,2.42
2023-04-24T05:29:37.955Z,2.40
2023-04-24T05:34:41.407Z,2.28
2023-04-24T05:39:45.080Z,2.30
2023-04-24T05:44:47.234Z,2.33
2023-04-24T05:49:49.579Z,2.20
2023-04-24T05:54:52.375Z,2.25
2023-04-24T05:59:59.172Z,2.25
2023-04-24T06:05:02.167Z,2.40
2023-04-24T06:10:04.712Z,2.65
2023-04-24T06:15:14.122Z,3.85
2023-04-24T06:20:27.827Z,3.10
2023-04-24T06:25:30.743Z,3.47
2023-04-24T06:30:32.999Z,3.33
2023-04-24T06:35:35.059Z,3.05
2023-04-24T06:40:37.171Z,3.17
2023-04-24T06:45:40.876Z,3.25
2023-04-24T06:50:43.299Z,3.00
2023-04-24T06:55:47.061Z,3.47
2023-04-24T07:00:49.109Z,3.05
2023-04-24T07:05:52.342Z,3.05
2023-04-24T07:10:54.450Z,2.92
2023-04-24T07:15:57.325Z,2.85
2023-04-24T07:20:59.441Z,3.13
2023-04-24T07:26:01.554Z,3.33
2023-04-24T07:31:03.648Z,3.40
2023-04-24T07:36:06.222Z,3.80
2023-04-24T07:41:08.269Z,2.67
2023-04-24T07:46:10.698Z,2.80
2023-04-24T07:51:14.377Z,3.40
2023-04-24T07:56:18.176Z,3.40
2023-04-24T08:01:20.319Z,3.40
2023-04-24T08:06:22.451Z,3.13
2023-04-24T08:11:25.736Z,2.83
2023-04-24T08:16:28.408Z,3.30
2023-04-24T08:21:30.985Z,4.05
2023-04-24T08:26:33.185Z,3.13
2023-04-24T08:31:35.631Z,2.53
2023-04-24T08:36:46.492Z,4.03
2023-04-24T08:41:50.056Z,2.40
2023-04-24T08:46:52.944Z,3.58
2023-04-24T08:51:55.387Z,3.20
2023-04-24T08:57:02.335Z,2.88
2023-04-24T09:02:05.749Z,3.67
2023-04-24T09:07:08.428Z,2.97
2023-04-24T09:12:11.114Z,3.58
2023-04-24T09:17:13.758Z,3.83
2023-04-24T09:22:16.610Z,2.90
2023-04-24T09:27:19.986Z,2.13
2023-04-24T09:32:23.829Z,2.90
2023-04-24T09:37:30.546Z,2.53
2023-04-24T09:42:33.192Z,2.38
2023-04-24T09:47:42.474Z,2.80
2023-04-24T09:52:57.291Z,2.58
2023-04-24T09:58:01.331Z,2.58
2023-04-24T10:03:05.383Z,2.53
2023-04-24T10:08:10.125Z,2.67
2023-04-24T10:13:14.028Z,2.08
2023-04-24T10:18:17.534Z,4.88
2023-04-24T10:23:20.724Z,2.63
2023-04-24T10:28:25.499Z,2.15
2023-04-24T10:33:28.071Z,2.53
2023-04-24T10:38:31.285Z,2.70
2023-04-24T10:43:34.861Z,2.40
2023-04-24T10:48:42.804Z,2.40
2023-04-24T10:53:44.865Z,2.03
2023-04-24T10:58:53.215Z,2.03
2023-04-24T11:04:00.773Z,2.40
2023-04-24T11:09:07.251Z,2.22
2023-04-24T11:14:09.631Z,2.38
2023-04-24T11:19:17.724Z,2.55
2023-04-24T11:24:27.141Z,2.60
2023-04-24T11:29:44.831Z,2.40
2023-04-24T11:34:48.743Z,2.10
2023-04-24T11:39:59.414Z,2.00
2023-04-24T11:45:03.077Z,2.20
2023-04-24T11:50:08.609Z,2.38
2023-04-24T11:55:16.632Z,2.30
2023-04-24T12:00:23.945Z,2.45
2023-04-24T12:05:28.232Z,2.60
2023-04-24T12:10:32.738Z,2.35
2023-04-24T12:15:34.956Z,2.38
2023-04-24T12:20:37.217Z,2.00
2023-04-24T12:25:40.108Z,1.80
2023-04-24T12:30:49.971Z,1.58
2023-04-24T12:35:56.508Z,1.92
2023-04-24T12:41:06.548Z,1.83
2023-04-24T12:46:08.593Z,1.55
2023-04-24T12:51:10.706Z,1.55
2023-04-24T12:56:12.781Z,1.85
2023-04-24T13:01:14.902Z,2.03
2023-04-24T13:06:17.105Z,2.13
2023-04-24T13:11:19.364Z,2.30
2023-04-24T13:16:21.417Z,2.80
2023-04-24T13:21:23.494Z,1.95
2023-04-24T13:26:25.847Z,2.40
2023-04-24T13:31:28.022Z,1.77
2023-04-24T13:36:31.198Z,2.00
2023-04-24T13:41:34.427Z,1.52
2023-04-24T13:46:36.705Z,1.70
2023-04-24T13:51:39.273Z,1.63
2023-04-24T13:56:41.958Z,1.77
2023-04-24T14:01:46.045Z,1.45
2023-04-24T14:06:48.203Z,1.85
2023-04-24T14:11:50.426Z,2.08
2023-04-24T14:16:52.525Z,1.95
2023-04-24T14:21:56.600Z,2.13
2023-04-24T14:26:58.815Z,1.85
2023-04-24T14:32:00.982Z,1.65
2023-04-24T14:37:03.407Z,1.83
2023-04-24T14:42:05.639Z,2.00
2023-04-24T14:47:07.883Z,1.90
2023-04-24T14:52:10.261Z,2.08
2023-04-24T14:57:13.045Z,1.40
2023-04-24T15:02:18.029Z,1.30
2023-04-24T15:07:21.620Z,1.55
2023-04-24T15:12:23.847Z,1.40
2023-04-24T15:17:26.194Z,1.95
2023-04-24T15:22:28.240Z,1.48
2023-04-24T15:27:41.509Z,1.35
2023-04-24T15:32:43.667Z,1.40
2023-04-24T15:37:45.885Z,1.65
2023-04-24T15:42:48.066Z,1.70
2023-04-24T15:47:52.082Z,1.83
2023-04-24T15:52:54.183Z,1.63
2023-04-24T15:57:56.391Z,2.00
2023-04-24T16:02:59.063Z,2.67
2023-04-24T16:08:01.340Z,2.03
2023-04-24T16:13:05.045Z,1.80
2023-04-24T16:18:07.212Z,1.83
2023-04-24T16:23:10.043Z,2.25
2023-04-24T16:28:12.271Z,2.03
2023-04-24T16:33:14.803Z,1.98
2023-04-24T16:38:16.885Z,2.42
2023-04-24T16:43:19.328Z,2.33
2023-04-24T16:48:21.472Z,2.13
2023-04-24T16:53:23.531Z,2.03
2023-04-24T16:58:25.916Z,2.47
2023-04-24T17:03:28.045Z,2.20
2023-04-24T17:08:32.835Z,2.55
2023-04-24T17:13:36.422Z,2.58
2023-04-24T17:18:38.662Z,2.67
2023-04-24T17:23:41.207Z,2.95
2023-04-24T17:28:43.518Z,2.05
2023-04-24T17:33:45.640Z,2.25
2023-04-24T17:38:47.989Z,3.00
2023-04-24T17:43:50.325Z,2.28
2023-04-24T17:48:52.750Z,2.65
2023-04-24T17:53:55.079Z,2.35
2023-04-24T17:58:58.348Z,3.20
2023-04-24T18:04:00.862Z,2.83
2023-04-24T18:09:03.599Z,2.33
2023-04-24T18:14:05.739Z,2.85
2023-04-24T18:19:07.817Z,2.20
2023-04-24T18:24:10.824Z,3.15
2023-04-24T18:29:13.165Z,2.80
2023-04-24T18:34:15.655Z,3.00
2023-04-24T18:39:17.722Z,2.55
2023-04-24T18:44:20.110Z,2.35
2023-04-24T18:49:22.387Z,3.80
2023-04-24T18:54:24.454Z,3.30
2023-04-24T18:59:27.783Z,3.75
2023-04-24T19:04:30.100Z,3.03
2023-04-24T19:09:32.280Z,2.70
2023-04-24T19:14:34.432Z,2.75
2023-04-24T19:19:36.575Z,2.92
2023-04-24T19:24:38.647Z,2.25
2023-04-24T19:29:42.100Z,2.90
2023-04-24T19:34:44.226Z,2.45
2023-04-24T19:39:46.395Z,1.88
2023-04-24T19:44:48.487Z,4.45
2023-04-24T19:49:50.578Z,3.58
2023-04-24T19:54:52.759Z,3.67
2023-04-24T19:59:54.932Z,2.60
2023-04-24T20:04:57.261Z,2.60
2023-04-24T20:09:59.384Z,2.78
2023-04-24T20:15:02.510Z,3.03
2023-04-24T20:20:05.162Z,2.25
2023-04-24T20:25:09.472Z,2.58
2023-04-24T20:30:16.018Z,2.60
2023-04-24T20:35:18.241Z,2.33
2023-04-24T20:40:20.286Z,2.30
2023-04-24T20:45:24.156Z,2.58
2023-04-24T20:50:26.249Z,2.45
2023-04-24T20:55:28.440Z,2.10
2023-04-24T21:00:30.987Z,1.95
2023-04-24T21:05:33.525Z,2.40
2023-04-24T21:10:35.724Z,2.00
2023-04-24T21:15:37.998Z,2.00
2023-04-24T21:20:40.186Z,1.88
2023-04-24T21:25:42.330Z,2.22
2023-04-24T21:30:44.589Z,2.30
2023-04-24T21:35:46.737Z,1.98
2023-04-24T21:40:50.549Z,2.00
2023-04-24T21:45:52.670Z,2.13
2023-04-24T21:50:54.791Z,1.67
2023-04-24T21:55:57.008Z,1.95
2023-04-24T22:00:59.161Z,1.60
2023-04-24T22:06:01.413Z,1.48
2023-04-24T22:11:04.362Z,1.40
2023-04-24T22:21:11.566Z,1.60
2023-04-24T22:26:13.763Z,2.38
2023-04-24T22:31:16.297Z,1.98
2023-04-24T22:36:18.475Z,1.50
2023-04-24T22:41:21.741Z,2.13
2023-04-24T22:46:25.060Z,1.80
2023-04-24T22:51:27.420Z,1.60
2023-04-24T22:56:29.696Z,1.85
2023-04-24T23:01:31.971Z,2.22
2023-04-24T23:06:34.209Z,2.10
2023-04-24T23:11:36.902Z,2.67
2023-04-24T23:16:41.094Z,2.47
2023-04-24T23:21:43.214Z,1.67
2023-04-24T23:26:45.412Z,1.80
2023-04-24T23:31:47.639Z,1.67
2023-04-24T23:36:52.425Z,2.00
2023-04-24T23:41:56.098Z,2.30
2023-04-24T23:46:58.206Z,2.10
2023-04-24T23:52:00.507Z,2.00
2023-04-24T23:57:03.582Z,2.22
